sensor_id;sensor_type;location;lat;lon;timestamp;temperature;humidity
10903;DHT22;5504;47.312;11.060;2023-11-19T00:02:23;6.30;94.00
10903;DHT22;5504;47.312;11.060;2023-11-19T00:04:49;6.30;94.10
10903;DHT22;5504;47.312;11.060;2023-11-19T00:07:15;6.20;94.00
10903;DHT22;5504;47.312;11.060;2023-11-19T00:09:41;6.30;94.10
10903;DHT22;5504;47.312;11.060;2023-11-19T00:12:07;6.40;94.10
10903;DHT22;5504;47.312;11.060;2023-11-19T00:14:33;6.30;93.90
10903;DHT22;5504;47.312;11.060;2023-11-19T00:17:00;6.30;94.00
10903;DHT22;5504;47.312;11.060;2023-11-19T00:19:26;6.40;94.00
10903;DHT22;5504;47.312;11.060;2023-11-19T00:21:52;6.50;93.80
10903;DHT22;5504;47.312;11.060;2023-11-19T00:24:18;6.50;93.90
10903;DHT22;5504;47.312;11.060;2023-11-19T00:26:44;6.50;93.60
10903;DHT22;5504;47.312;11.060;2023-11-19T00:29:09;6.50;93.70
10903;DHT22;5504;47.312;11.060;2023-11-19T00:31:36;6.40;93.60
10903;DHT22;5504;47.312;11.060;2023-11-19T00:34:02;6.40;93.70
10903;DHT22;5504;47.312;11.060;2023-11-19T00:36:28;6.40;93.80
10903;DHT22;5504;47.312;11.060;2023-11-19T00:38:54;6.40;93.70
10903;DHT22;5504;47.312;11.060;2023-11-19T00:41:20;6.30;93.70
10903;DHT22;5504;47.312;11.060;2023-11-19T00:43:46;6.30;94.00
10903;DHT22;5504;47.312;11.060;2023-11-19T00:46:12;6.40;94.10
10903;DHT22;5504;47.312;11.060;2023-11-19T00:48:39;6.40;94.00
10903;DHT22;5504;47.312;11.060;2023-11-19T00:51:05;6.40;94.10
10903;DHT22;5504;47.312;11.060;2023-11-19T00:53:31;6.30;94.00
10903;DHT22;5504;47.312;11.060;2023-11-19T00:55:57;6.40;94.20
10903;DHT22;5504;47.312;11.060;2023-11-19T00:58:23;6.30;94.10
10903;DHT22;5504;47.312;11.060;2023-11-19T01:00:49;6.30;94.30
10903;DHT22;5504;47.312;11.060;2023-11-19T01:03:15;6.40;94.30
10903;DHT22;5504;47.312;11.060;2023-11-19T01:05:43;6.50;94.30
10903;DHT22;5504;47.312;11.060;2023-11-19T01:08:10;6.50;94.20
10903;DHT22;5504;47.312;11.060;2023-11-19T01:10:39;6.50;94.20
10903;DHT22;5504;47.312;11.060;2023-11-19T01:13:05;6.60;94.30
10903;DHT22;5504;47.312;11.060;2023-11-19T01:15:34;6.60;94.30
10903;DHT22;5504;47.312;11.060;2023-11-19T01:18:00;6.60;94.20
10903;DHT22;5504;47.312;11.060;2023-11-19T01:20:30;6.60;94.10
10903;DHT22;5504;47.312;11.060;2023-11-19T01:22:56;6.60;94.10
10903;DHT22;5504;47.312;11.060;2023-11-19T01:25:21;6.60;94.00
10903;DHT22;5504;47.312;11.060;2023-11-19T01:27:47;6.70;94.00
10903;DHT22;5504;47.312;11.060;2023-11-19T01:30:13;6.80;94.00
10903;DHT22;5504;47.312;11.060;2023-11-19T01:32:40;6.80;93.80
10903;DHT22;5504;47.312;11.060;2023-11-19T01:35:06;6.90;93.70
10903;DHT22;5504;47.312;11.060;2023-11-19T01:37:33;6.80;93.50
10903;DHT22;5504;47.312;11.060;2023-11-19T01:40:00;6.70;93.40
10903;DHT22;5504;47.312;11.060;2023-11-19T01:42:26;6.70;93.50
10903;DHT22;5504;47.312;11.060;2023-11-19T01:44:58;6.70;93.60
10903;DHT22;5504;47.312;11.060;2023-11-19T01:47:25;6.60;93.60
10903;DHT22;5504;47.312;11.060;2023-11-19T01:49:52;6.50;93.70
10903;DHT22;5504;47.312;11.060;2023-11-19T01:52:18;6.50;93.80
10903;DHT22;5504;47.312;11.060;2023-11-19T01:54:45;6.40;94.10
10903;DHT22;5504;47.312;11.060;2023-11-19T01:57:13;6.40;94.20
10903;DHT22;5504;47.312;11.060;2023-11-19T01:59:39;6.40;94.10
10903;DHT22;5504;47.312;11.060;2023-11-19T02:02:05;6.40;94.10
10903;DHT22;5504;47.312;11.060;2023-11-19T02:04:32;6.30;94.20
10903;DHT22;5504;47.312;11.060;2023-11-19T02:06:58;6.40;94.40
10903;DHT22;5504;47.312;11.060;2023-11-19T02:09:24;6.40;94.50
10903;DHT22;5504;47.312;11.060;2023-11-19T02:11:50;6.50;94.60
10903;DHT22;5504;47.312;11.060;2023-11-19T02:14:17;6.60;94.50
10903;DHT22;5504;47.312;11.060;2023-11-19T02:16:43;6.60;94.40
10903;DHT22;5504;47.312;11.060;2023-11-19T02:19:09;6.60;94.40
10903;DHT22;5504;47.312;11.060;2023-11-19T02:21:37;6.60;94.40
10903;DHT22;5504;47.312;11.060;2023-11-19T02:24:07;6.70;94.40
10903;DHT22;5504;47.312;11.060;2023-11-19T02:27:08;6.60;94.30
10903;DHT22;5504;47.312;11.060;2023-11-19T02:29:35;6.60;94.40
10903;DHT22;5504;47.312;11.060;2023-11-19T02:32:01;6.60;94.40
10903;DHT22;5504;47.312;11.060;2023-11-19T02:34:27;6.60;94.40
10903;DHT22;5504;47.312;11.060;2023-11-19T02:36:53;6.80;94.30
10903;DHT22;5504;47.312;11.060;2023-11-19T02:39:19;6.90;94.00
10903;DHT22;5504;47.312;11.060;2023-11-19T02:41:47;6.70;93.90
10903;DHT22;5504;47.312;11.060;2023-11-19T02:44:16;6.70;94.10
10903;DHT22;5504;47.312;11.060;2023-11-19T02:46:42;6.70;94.20
10903;DHT22;5504;47.312;11.060;2023-11-19T02:49:08;6.70;94.30
10903;DHT22;5504;47.312;11.060;2023-11-19T02:51:34;6.70;94.30
10903;DHT22;5504;47.312;11.060;2023-11-19T02:54:00;6.70;94.30
10903;DHT22;5504;47.312;11.060;2023-11-19T02:56:26;6.60;94.20
10903;DHT22;5504;47.312;11.060;2023-11-19T02:58:52;6.60;94.40
10903;DHT22;5504;47.312;11.060;2023-11-19T03:01:24;6.70;94.50
10903;DHT22;5504;47.312;11.060;2023-11-19T03:03:56;6.90;94.40
10903;DHT22;5504;47.312;11.060;2023-11-19T03:06:23;6.90;94.20
10903;DHT22;5504;47.312;11.060;2023-11-19T03:08:49;7.00;94.00
10903;DHT22;5504;47.312;11.060;2023-11-19T03:11:15;6.90;93.90
10903;DHT22;5504;47.312;11.060;2023-11-19T03:13:40;6.90;93.80
10903;DHT22;5504;47.312;11.060;2023-11-19T03:16:07;6.90;93.90
10903;DHT22;5504;47.312;11.060;2023-11-19T03:18:33;6.80;93.90
10903;DHT22;5504;47.312;11.060;2023-11-19T03:20:58;6.90;94.10
10903;DHT22;5504;47.312;11.060;2023-11-19T03:23:25;6.90;93.80
10903;DHT22;5504;47.312;11.060;2023-11-19T03:25:53;6.80;93.90
10903;DHT22;5504;47.312;11.060;2023-11-19T03:28:19;6.80;94.00
10903;DHT22;5504;47.312;11.060;2023-11-19T03:30:44;6.70;94.20
10903;DHT22;5504;47.312;11.060;2023-11-19T03:33:10;6.70;94.40
10903;DHT22;5504;47.312;11.060;2023-11-19T03:35:36;6.70;94.40
10903;DHT22;5504;47.312;11.060;2023-11-19T03:38:01;6.80;94.80
10903;DHT22;5504;47.312;11.060;2023-11-19T03:40:28;6.70;94.40
10903;DHT22;5504;47.312;11.060;2023-11-19T03:42:56;6.60;94.40
10903;DHT22;5504;47.312;11.060;2023-11-19T03:45:22;6.60;94.60
10903;DHT22;5504;47.312;11.060;2023-11-19T03:47:48;6.60;94.70
10903;DHT22;5504;47.312;11.060;2023-11-19T03:50:15;6.60;94.60
10903;DHT22;5504;47.312;11.060;2023-11-19T03:52:41;6.60;94.70
10903;DHT22;5504;47.312;11.060;2023-11-19T03:55:07;6.60;94.60
10903;DHT22;5504;47.312;11.060;2023-11-19T03:57:34;6.50;94.70
10903;DHT22;5504;47.312;11.060;2023-11-19T04:00:00;6.30;94.90
10903;DHT22;5504;47.312;11.060;2023-11-19T04:02:31;6.30;95.30
10903;DHT22;5504;47.312;11.060;2023-11-19T04:04:57;6.30;95.40
10903;DHT22;5504;47.312;11.060;2023-11-19T04:07:23;6.40;95.40
10903;DHT22;5504;47.312;11.060;2023-11-19T04:09:49;6.50;95.10
10903;DHT22;5504;47.312;11.060;2023-11-19T04:12:14;6.50;94.80
10903;DHT22;5504;47.312;11.060;2023-11-19T04:14:40;6.60;94.80
10903;DHT22;5504;47.312;11.060;2023-11-19T04:17:06;6.70;94.70
10903;DHT22;5504;47.312;11.060;2023-11-19T04:19:32;6.70;94.60
10903;DHT22;5504;47.312;11.060;2023-11-19T04:21:58;6.70;94.80
10903;DHT22;5504;47.312;11.060;2023-11-19T04:24:24;6.70;94.80
10903;DHT22;5504;47.312;11.060;2023-11-19T04:26:49;6.80;94.70
10903;DHT22;5504;47.312;11.060;2023-11-19T04:29:16;6.70;94.60
10903;DHT22;5504;47.312;11.060;2023-11-19T04:31:45;6.70;94.70
10903;DHT22;5504;47.312;11.060;2023-11-19T04:34:11;6.60;95.00
10903;DHT22;5504;47.312;11.060;2023-11-19T04:36:37;6.70;95.10
10903;DHT22;5504;47.312;11.060;2023-11-19T04:39:04;6.70;95.20
10903;DHT22;5504;47.312;11.060;2023-11-19T04:41:50;6.80;95.00
10903;DHT22;5504;47.312;11.060;2023-11-19T04:44:19;6.70;94.90
10903;DHT22;5504;47.312;11.060;2023-11-19T04:46:45;6.80;95.00
10903;DHT22;5504;47.312;11.060;2023-11-19T04:49:12;6.80;94.90
10903;DHT22;5504;47.312;11.060;2023-11-19T04:51:39;6.80;95.00
10903;DHT22;5504;47.312;11.060;2023-11-19T04:54:05;6.70;95.00
10903;DHT22;5504;47.312;11.060;2023-11-19T04:56:34;6.80;95.00
10903;DHT22;5504;47.312;11.060;2023-11-19T04:59:01;6.80;95.20
10903;DHT22;5504;47.312;11.060;2023-11-19T05:01:27;6.80;95.20
10903;DHT22;5504;47.312;11.060;2023-11-19T05:03:53;6.70;95.20
10903;DHT22;5504;47.312;11.060;2023-11-19T05:06:19;6.50;95.10
10903;DHT22;5504;47.312;11.060;2023-11-19T05:08:46;6.60;95.40
10903;DHT22;5504;47.312;11.060;2023-11-19T05:11:11;6.60;95.30
10903;DHT22;5504;47.312;11.060;2023-11-19T05:13:44;6.70;95.40
10903;DHT22;5504;47.312;11.060;2023-11-19T05:16:11;6.60;95.30
10903;DHT22;5504;47.312;11.060;2023-11-19T05:18:39;6.70;95.40
10903;DHT22;5504;47.312;11.060;2023-11-19T05:21:05;6.60;95.10
10903;DHT22;5504;47.312;11.060;2023-11-19T05:23:32;6.60;95.40
10903;DHT22;5504;47.312;11.060;2023-11-19T05:26:02;6.70;95.50
10903;DHT22;5504;47.312;11.060;2023-11-19T05:28:28;6.70;95.50
10903;DHT22;5504;47.312;11.060;2023-11-19T05:30:54;6.70;95.40
10903;DHT22;5504;47.312;11.060;2023-11-19T05:33:20;6.80;95.40
10903;DHT22;5504;47.312;11.060;2023-11-19T05:35:46;6.80;95.30
10903;DHT22;5504;47.312;11.060;2023-11-19T05:38:12;6.80;95.50
10903;DHT22;5504;47.312;11.060;2023-11-19T05:40:38;6.40;95.40
10903;DHT22;5504;47.312;11.060;2023-11-19T05:43:04;6.00;96.20
10903;DHT22;5504;47.312;11.060;2023-11-19T05:45:32;6.30;96.40
10903;DHT22;5504;47.312;11.060;2023-11-19T05:47:58;6.40;96.40
10903;DHT22;5504;47.312;11.060;2023-11-19T05:50:23;6.60;96.40
10903;DHT22;5504;47.312;11.060;2023-11-19T05:52:49;6.60;96.30
10903;DHT22;5504;47.312;11.060;2023-11-19T05:55:15;6.70;96.30
10903;DHT22;5504;47.312;11.060;2023-11-19T05:57:41;7.00;96.10
10903;DHT22;5504;47.312;11.060;2023-11-19T06:00:08;7.00;95.70
10903;DHT22;5504;47.312;11.060;2023-11-19T06:02:36;6.90;95.60
10903;DHT22;5504;47.312;11.060;2023-11-19T06:05:04;6.90;95.50
10903;DHT22;5504;47.312;11.060;2023-11-19T06:07:32;6.90;95.70
10903;DHT22;5504;47.312;11.060;2023-11-19T06:09:58;6.90;95.70
10903;DHT22;5504;47.312;11.060;2023-11-19T06:12:24;6.90;95.70
10903;DHT22;5504;47.312;11.060;2023-11-19T06:14:49;7.00;95.70
10903;DHT22;5504;47.312;11.060;2023-11-19T06:17:15;7.10;95.50
10903;DHT22;5504;47.312;11.060;2023-11-19T06:19:41;6.90;95.20
10903;DHT22;5504;47.312;11.060;2023-11-19T06:22:06;6.90;95.50
10903;DHT22;5504;47.312;11.060;2023-11-19T06:24:32;6.90;95.50
10903;DHT22;5504;47.312;11.060;2023-11-19T06:26:58;7.00;95.40
10903;DHT22;5504;47.312;11.060;2023-11-19T06:29:24;7.10;95.50
10903;DHT22;5504;47.312;11.060;2023-11-19T06:31:50;7.10;95.50
10903;DHT22;5504;47.312;11.060;2023-11-19T06:34:16;6.90;95.30
10903;DHT22;5504;47.312;11.060;2023-11-19T06:36:42;6.80;95.40
10903;DHT22;5504;47.312;11.060;2023-11-19T06:39:10;7.00;95.70
10903;DHT22;5504;47.312;11.060;2023-11-19T06:41:36;7.00;95.60
10903;DHT22;5504;47.312;11.060;2023-11-19T06:44:06;7.00;95.70
10903;DHT22;5504;47.312;11.060;2023-11-19T06:46:32;7.10;95.50
10903;DHT22;5504;47.312;11.060;2023-11-19T06:48:57;7.00;95.40
10903;DHT22;5504;47.312;11.060;2023-11-19T06:51:23;6.80;95.80
10903;DHT22;5504;47.312;11.060;2023-11-19T06:53:50;6.90;95.60
10903;DHT22;5504;47.312;11.060;2023-11-19T06:56:22;6.90;95.40
10903;DHT22;5504;47.312;11.060;2023-11-19T06:58:52;7.00;95.50
10903;DHT22;5504;47.312;11.060;2023-11-19T07:01:18;7.10;95.20
10903;DHT22;5504;47.312;11.060;2023-11-19T07:03:47;6.90;95.20
10903;DHT22;5504;47.312;11.060;2023-11-19T07:06:13;7.00;95.60
10903;DHT22;5504;47.312;11.060;2023-11-19T07:08:42;7.00;95.70
10903;DHT22;5504;47.312;11.060;2023-11-19T07:11:12;7.10;95.80
10903;DHT22;5504;47.312;11.060;2023-11-19T07:13:39;7.10;95.60
10903;DHT22;5504;47.312;11.060;2023-11-19T07:16:07;7.00;95.70
10903;DHT22;5504;47.312;11.060;2023-11-19T07:18:35;7.10;95.80
10903;DHT22;5504;47.312;11.060;2023-11-19T07:21:01;7.10;95.90
10903;DHT22;5504;47.312;11.060;2023-11-19T07:23:28;7.20;95.70
10903;DHT22;5504;47.312;11.060;2023-11-19T07:25:54;7.20;95.70
10903;DHT22;5504;47.312;11.060;2023-11-19T07:28:19;7.20;95.70
10903;DHT22;5504;47.312;11.060;2023-11-19T07:30:45;7.20;95.70
10903;DHT22;5504;47.312;11.060;2023-11-19T07:33:11;7.30;95.70
10903;DHT22;5504;47.312;11.060;2023-11-19T07:35:39;7.40;95.60
10903;DHT22;5504;47.312;11.060;2023-11-19T07:38:06;7.30;95.50
10903;DHT22;5504;47.312;11.060;2023-11-19T07:40:32;7.30;95.60
10903;DHT22;5504;47.312;11.060;2023-11-19T07:42:58;7.30;95.80
10903;DHT22;5504;47.312;11.060;2023-11-19T07:45:23;7.40;95.80
10903;DHT22;5504;47.312;11.060;2023-11-19T07:47:49;7.40;95.80
10903;DHT22;5504;47.312;11.060;2023-11-19T07:50:16;7.40;95.70
10903;DHT22;5504;47.312;11.060;2023-11-19T07:52:45;7.30;95.60
10903;DHT22;5504;47.312;11.060;2023-11-19T07:55:11;7.40;95.70
10903;DHT22;5504;47.312;11.060;2023-11-19T07:57:37;7.40;95.70
10903;DHT22;5504;47.312;11.060;2023-11-19T08:00:04;7.60;95.80
10903;DHT22;5504;47.312;11.060;2023-11-19T08:02:29;7.60;95.80
10903;DHT22;5504;47.312;11.060;2023-11-19T08:04:55;7.70;95.60
10903;DHT22;5504;47.312;11.060;2023-11-19T08:07:21;7.70;95.40
10903;DHT22;5504;47.312;11.060;2023-11-19T08:09:48;7.90;95.30
10903;DHT22;5504;47.312;11.060;2023-11-19T08:12:13;7.90;95.20
10903;DHT22;5504;47.312;11.060;2023-11-19T08:14:43;7.80;95.10
10903;DHT22;5504;47.312;11.060;2023-11-19T08:17:09;7.80;95.30
10903;DHT22;5504;47.312;11.060;2023-11-19T08:19:35;7.80;95.30
10903;DHT22;5504;47.312;11.060;2023-11-19T08:22:01;7.90;95.50
10903;DHT22;5504;47.312;11.060;2023-11-19T08:24:27;7.90;95.40
10903;DHT22;5504;47.312;11.060;2023-11-19T08:26:53;7.80;95.50
10903;DHT22;5504;47.312;11.060;2023-11-19T08:29:19;7.90;95.70
10903;DHT22;5504;47.312;11.060;2023-11-19T08:31:45;8.00;95.80
10903;DHT22;5504;47.312;11.060;2023-11-19T08:34:11;8.10;95.80
10903;DHT22;5504;47.312;11.060;2023-11-19T08:36:37;8.10;95.70
10903;DHT22;5504;47.312;11.060;2023-11-19T08:39:03;8.20;95.70
10903;DHT22;5504;47.312;11.060;2023-11-19T08:41:28;8.40;95.80
10903;DHT22;5504;47.312;11.060;2023-11-19T08:43:54;8.20;95.50
10903;DHT22;5504;47.312;11.060;2023-11-19T08:46:20;8.20;95.70
10903;DHT22;5504;47.312;11.060;2023-11-19T08:48:45;8.20;95.80
10903;DHT22;5504;47.312;11.060;2023-11-19T08:51:12;8.10;95.80
10903;DHT22;5504;47.312;11.060;2023-11-19T08:53:38;7.90;96.10
10903;DHT22;5504;47.312;11.060;2023-11-19T08:56:04;7.80;96.00
10903;DHT22;5504;47.312;11.060;2023-11-19T08:58:30;7.10;97.20
10903;DHT22;5504;47.312;11.060;2023-11-19T09:00:56;7.20;97.80
10903;DHT22;5504;47.312;11.060;2023-11-19T09:03:22;7.10;98.00
10903;DHT22;5504;47.312;11.060;2023-11-19T09:05:48;7.50;98.50
10903;DHT22;5504;47.312;11.060;2023-11-19T09:08:14;7.70;97.60
10903;DHT22;5504;47.312;11.060;2023-11-19T09:10:39;8.00;97.30
10903;DHT22;5504;47.312;11.060;2023-11-19T09:13:05;7.90;96.80
10903;DHT22;5504;47.312;11.060;2023-11-19T09:15:31;7.70;96.50
10903;DHT22;5504;47.312;11.060;2023-11-19T09:17:56;7.50;97.00
10903;DHT22;5504;47.312;11.060;2023-11-19T09:20:22;7.80;97.20
10903;DHT22;5504;47.312;11.060;2023-11-19T09:22:48;7.90;96.50
10903;DHT22;5504;47.312;11.060;2023-11-19T09:25:14;8.10;96.50
10903;DHT22;5504;47.312;11.060;2023-11-19T09:27:45;8.30;96.40
10903;DHT22;5504;47.312;11.060;2023-11-19T09:30:11;8.50;96.10
10903;DHT22;5504;47.312;11.060;2023-11-19T09:32:38;8.60;96.20
10903;DHT22;5504;47.312;11.060;2023-11-19T09:35:04;8.90;96.10
10903;DHT22;5504;47.312;11.060;2023-11-19T09:37:30;9.10;95.30
10903;DHT22;5504;47.312;11.060;2023-11-19T09:39:55;9.40;95.00
10903;DHT22;5504;47.312;11.060;2023-11-19T09:42:23;9.10;94.40
10903;DHT22;5504;47.312;11.060;2023-11-19T09:44:49;9.30;94.80
10903;DHT22;5504;47.312;11.060;2023-11-19T09:47:17;9.10;94.90
10903;DHT22;5504;47.312;11.060;2023-11-19T09:49:44;9.10;94.60
10903;DHT22;5504;47.312;11.060;2023-11-19T09:52:12;9.40;94.80
10903;DHT22;5504;47.312;11.060;2023-11-19T09:54:38;9.70;95.20
10903;DHT22;5504;47.312;11.060;2023-11-19T09:57:04;9.80;94.50
10903;DHT22;5504;47.312;11.060;2023-11-19T09:59:33;10.10;94.70
10903;DHT22;5504;47.312;11.060;2023-11-19T10:01:59;9.30;93.90
10903;DHT22;5504;47.312;11.060;2023-11-19T10:04:26;9.10;94.10
10903;DHT22;5504;47.312;11.060;2023-11-19T10:06:54;9.00;95.10
10903;DHT22;5504;47.312;11.060;2023-11-19T10:09:20;8.60;95.00
10903;DHT22;5504;47.312;11.060;2023-11-19T10:11:46;8.40;95.70
10903;DHT22;5504;47.312;11.060;2023-11-19T10:14:11;8.40;96.30
10903;DHT22;5504;47.312;11.060;2023-11-19T10:16:38;8.70;96.40
10903;DHT22;5504;47.312;11.060;2023-11-19T10:19:04;8.90;96.10
10903;DHT22;5504;47.312;11.060;2023-11-19T10:21:32;9.10;96.20
10903;DHT22;5504;47.312;11.060;2023-11-19T10:23:59;9.30;95.70
10903;DHT22;5504;47.312;11.060;2023-11-19T10:26:28;9.40;95.50
10903;DHT22;5504;47.312;11.060;2023-11-19T10:28:55;9.60;95.40
10903;DHT22;5504;47.312;11.060;2023-11-19T10:31:21;9.60;94.70
10903;DHT22;5504;47.312;11.060;2023-11-19T10:33:51;9.70;94.30
10903;DHT22;5504;47.312;11.060;2023-11-19T10:36:17;9.70;94.10
10903;DHT22;5504;47.312;11.060;2023-11-19T10:38:55;9.80;94.10
10903;DHT22;5504;47.312;11.060;2023-11-19T10:41:28;9.80;94.40
10903;DHT22;5504;47.312;11.060;2023-11-19T10:43:53;9.90;94.40
10903;DHT22;5504;47.312;11.060;2023-11-19T10:46:19;10.00;94.30
10903;DHT22;5504;47.312;11.060;2023-11-19T10:48:48;10.10;94.20
10903;DHT22;5504;47.312;11.060;2023-11-19T10:51:18;10.20;94.00
10903;DHT22;5504;47.312;11.060;2023-11-19T10:53:49;10.20;93.60
10903;DHT22;5504;47.312;11.060;2023-11-19T10:56:16;10.20;93.30
10903;DHT22;5504;47.312;11.060;2023-11-19T10:58:45;9.80;93.20
10903;DHT22;5504;47.312;11.060;2023-11-19T11:01:20;9.70;93.90
10903;DHT22;5504;47.312;11.060;2023-11-19T11:03:51;9.90;93.90
10903;DHT22;5504;47.312;11.060;2023-11-19T11:06:19;10.10;93.60
10903;DHT22;5504;47.312;11.060;2023-11-19T11:08:48;10.10;93.60
10903;DHT22;5504;47.312;11.060;2023-11-19T11:11:15;10.10;94.00
10903;DHT22;5504;47.312;11.060;2023-11-19T11:13:47;10.10;93.90
10903;DHT22;5504;47.312;11.060;2023-11-19T11:16:15;10.00;94.20
10903;DHT22;5504;47.312;11.060;2023-11-19T11:18:45;9.90;94.40
10903;DHT22;5504;47.312;11.060;2023-11-19T11:21:17;9.80;94.70
10903;DHT22;5504;47.312;11.060;2023-11-19T11:24:29;10.10;94.80
10903;DHT22;5504;47.312;11.060;2023-11-19T11:30:20;10.30;94.00
10903;DHT22;5504;47.312;11.060;2023-11-19T11:35:54;10.40;94.10
10903;DHT22;5504;47.312;11.060;2023-11-19T11:38:22;10.40;94.40
10903;DHT22;5504;47.312;11.060;2023-11-19T11:41:21;10.60;94.00
10903;DHT22;5504;47.312;11.060;2023-11-19T11:43:52;10.70;94.10
10903;DHT22;5504;47.312;11.060;2023-11-19T11:49:03;10.00;94.90
10903;DHT22;5504;47.312;11.060;2023-11-19T11:57:07;9.40;97.40
10903;DHT22;5504;47.312;11.060;2023-11-19T12:02:08;10.10;95.90
10903;DHT22;5504;47.312;11.060;2023-11-19T12:04:38;10.20;95.50
10903;DHT22;5504;47.312;11.060;2023-11-19T12:07:15;10.40;95.20
10903;DHT22;5504;47.312;11.060;2023-11-19T12:09:42;10.50;94.90
10903;DHT22;5504;47.312;11.060;2023-11-19T12:15:09;10.70;94.70
10903;DHT22;5504;47.312;11.060;2023-11-19T12:17:38;10.50;94.90
10903;DHT22;5504;47.312;11.060;2023-11-19T12:20:07;10.40;95.20
10903;DHT22;5504;47.312;11.060;2023-11-19T12:22:41;10.60;95.50
10903;DHT22;5504;47.312;11.060;2023-11-19T12:25:07;10.80;95.40
10903;DHT22;5504;47.312;11.060;2023-11-19T12:27:45;10.50;94.60
10903;DHT22;5504;47.312;11.060;2023-11-19T12:30:12;10.40;95.10
10903;DHT22;5504;47.312;11.060;2023-11-19T12:32:47;10.60;95.20
10903;DHT22;5504;47.312;11.060;2023-11-19T12:35:12;10.70;95.00
10903;DHT22;5504;47.312;11.060;2023-11-19T12:37:46;11.00;95.20
10903;DHT22;5504;47.312;11.060;2023-11-19T12:40:12;11.10;95.20
10903;DHT22;5504;47.312;11.060;2023-11-19T12:42:39;11.10;94.70
10903;DHT22;5504;47.312;11.060;2023-11-19T12:45:07;11.10;94.40
10903;DHT22;5504;47.312;11.060;2023-11-19T12:47:40;11.10;94.50
10903;DHT22;5504;47.312;11.060;2023-11-19T12:50:07;10.90;95.00
10903;DHT22;5504;47.312;11.060;2023-11-19T12:52:34;11.00;95.30
10903;DHT22;5504;47.312;11.060;2023-11-19T12:55:01;10.60;94.80
10903;DHT22;5504;47.312;11.060;2023-11-19T12:57:40;10.60;95.10
10903;DHT22;5504;47.312;11.060;2023-11-19T13:00:06;10.80;95.30
10903;DHT22;5504;47.312;11.060;2023-11-19T13:02:49;10.90;95.00
10903;DHT22;5504;47.312;11.060;2023-11-19T13:05:28;10.90;94.70
10903;DHT22;5504;47.312;11.060;2023-11-19T13:10:29;11.10;94.80
10903;DHT22;5504;47.312;11.060;2023-11-19T13:13:06;10.90;94.80
10903;DHT22;5504;47.312;11.060;2023-11-19T13:15:34;10.90;95.20
10903;DHT22;5504;47.312;11.060;2023-11-19T13:18:00;11.20;95.10
10903;DHT22;5504;47.312;11.060;2023-11-19T13:20:27;11.20;94.70
10903;DHT22;5504;47.312;11.060;2023-11-19T13:22:57;11.10;94.90
10903;DHT22;5504;47.312;11.060;2023-11-19T13:25:23;11.10;94.80
10903;DHT22;5504;47.312;11.060;2023-11-19T13:27:49;11.10;95.10
10903;DHT22;5504;47.312;11.060;2023-11-19T13:30:15;11.20;95.00
10903;DHT22;5504;47.312;11.060;2023-11-19T13:32:41;11.20;94.90
10903;DHT22;5504;47.312;11.060;2023-11-19T13:35:09;10.90;95.50
10903;DHT22;5504;47.312;11.060;2023-11-19T13:37:35;10.70;96.10
10903;DHT22;5504;47.312;11.060;2023-11-19T13:40:01;10.90;96.50
10903;DHT22;5504;47.312;11.060;2023-11-19T13:42:26;10.90;96.50
10903;DHT22;5504;47.312;11.060;2023-11-19T13:44:52;10.90;96.70
10903;DHT22;5504;47.312;11.060;2023-11-19T13:47:18;11.10;96.60
10903;DHT22;5504;47.312;11.060;2023-11-19T13:49:47;11.10;96.20
10903;DHT22;5504;47.312;11.060;2023-11-19T13:52:13;11.00;96.20
10903;DHT22;5504;47.312;11.060;2023-11-19T13:54:38;11.10;96.40
10903;DHT22;5504;47.312;11.060;2023-11-19T13:57:04;11.20;96.50
10903;DHT22;5504;47.312;11.060;2023-11-19T13:59:33;11.20;96.50
10903;DHT22;5504;47.312;11.060;2023-11-19T14:01:59;11.30;96.20
10903;DHT22;5504;47.312;11.060;2023-11-19T14:04:25;11.30;96.30
10903;DHT22;5504;47.312;11.060;2023-11-19T14:06:51;11.40;96.30
10903;DHT22;5504;47.312;11.060;2023-11-19T14:09:17;11.40;96.40
10903;DHT22;5504;47.312;11.060;2023-11-19T14:11:43;11.30;96.60
10903;DHT22;5504;47.312;11.060;2023-11-19T14:14:09;11.40;96.60
10903;DHT22;5504;47.312;11.060;2023-11-19T14:16:34;11.40;96.60
10903;DHT22;5504;47.312;11.060;2023-11-19T14:19:00;11.40;96.60
10903;DHT22;5504;47.312;11.060;2023-11-19T14:21:26;11.40;96.70
10903;DHT22;5504;47.312;11.060;2023-11-19T14:23:53;11.50;96.70
10903;DHT22;5504;47.312;11.060;2023-11-19T14:26:18;11.40;96.80
10903;DHT22;5504;47.312;11.060;2023-11-19T14:28:44;11.50;96.80
10903;DHT22;5504;47.312;11.060;2023-11-19T14:31:10;11.50;96.50
10903;DHT22;5504;47.312;11.060;2023-11-19T14:33:36;11.40;96.60
10903;DHT22;5504;47.312;11.060;2023-11-19T14:36:03;11.30;96.80
10903;DHT22;5504;47.312;11.060;2023-11-19T14:38:30;11.20;97.10
10903;DHT22;5504;47.312;11.060;2023-11-19T14:40:56;11.30;97.30
10903;DHT22;5504;47.312;11.060;2023-11-19T14:43:21;11.30;97.30
10903;DHT22;5504;47.312;11.060;2023-11-19T14:45:47;11.10;97.60
10903;DHT22;5504;47.312;11.060;2023-11-19T14:48:13;10.70;98.30
10903;DHT22;5504;47.312;11.060;2023-11-19T14:50:39;10.90;98.70
10903;DHT22;5504;47.312;11.060;2023-11-19T14:53:05;11.10;98.30
10903;DHT22;5504;47.312;11.060;2023-11-19T14:55:31;11.20;98.20
10903;DHT22;5504;47.312;11.060;2023-11-19T14:57:57;11.40;98.00
10903;DHT22;5504;47.312;11.060;2023-11-19T15:00:23;11.40;97.70
10903;DHT22;5504;47.312;11.060;2023-11-19T15:02:48;11.40;97.60
10903;DHT22;5504;47.312;11.060;2023-11-19T15:05:14;11.30;97.60
10903;DHT22;5504;47.312;11.060;2023-11-19T15:07:40;11.40;97.70
10903;DHT22;5504;47.312;11.060;2023-11-19T15:10:06;11.40;97.80
10903;DHT22;5504;47.312;11.060;2023-11-19T15:12:38;11.20;97.50
10903;DHT22;5504;47.312;11.060;2023-11-19T15:15:08;11.10;97.80
10903;DHT22;5504;47.312;11.060;2023-11-19T15:17:43;11.20;97.90
10903;DHT22;5504;47.312;11.060;2023-11-19T15:20:10;11.40;97.60
10903;DHT22;5504;47.312;11.060;2023-11-19T15:22:38;11.40;97.20
10903;DHT22;5504;47.312;11.060;2023-11-19T15:25:04;11.30;97.00
10903;DHT22;5504;47.312;11.060;2023-11-19T15:27:35;10.60;97.50
10903;DHT22;5504;47.312;11.060;2023-11-19T15:30:02;10.60;97.80
10903;DHT22;5504;47.312;11.060;2023-11-19T15:32:28;10.70;97.60
10903;DHT22;5504;47.312;11.060;2023-11-19T15:34:57;10.70;97.40
10903;DHT22;5504;47.312;11.060;2023-11-19T15:37:23;10.80;97.40
10903;DHT22;5504;47.312;11.060;2023-11-19T15:39:49;10.80;97.30
10903;DHT22;5504;47.312;11.060;2023-11-19T15:42:17;10.70;97.10
10903;DHT22;5504;47.312;11.060;2023-11-19T15:44:46;10.70;97.10
10903;DHT22;5504;47.312;11.060;2023-11-19T15:47:11;10.70;97.00
10903;DHT22;5504;47.312;11.060;2023-11-19T15:49:39;10.80;96.70
10903;DHT22;5504;47.312;11.060;2023-11-19T15:52:05;10.80;96.80
10903;DHT22;5504;47.312;11.060;2023-11-19T15:54:31;10.80;96.80
10903;DHT22;5504;47.312;11.060;2023-11-19T15:56:56;10.70;96.60
10903;DHT22;5504;47.312;11.060;2023-11-19T15:59:22;10.50;96.80
10903;DHT22;5504;47.312;11.060;2023-11-19T16:01:48;10.60;97.00
10903;DHT22;5504;47.312;11.060;2023-11-19T16:04:14;10.60;96.90
10903;DHT22;5504;47.312;11.060;2023-11-19T16:06:39;10.50;96.90